sensor_id;sensor_type;location;lat;lon;timestamp;temperature;humidity
6518;DHT22;3292;48.944;9.240;2023-09-19T00:01:43;17.60;99.90
6518;DHT22;3292;48.944;9.240;2023-09-19T00:04:12;17.60;99.90
6518;DHT22;3292;48.944;9.240;2023-09-19T00:06:40;17.60;99.90
6518;DHT22;3292;48.944;9.240;2023-09-19T00:09:08;17.60;99.90
6518;DHT22;3292;48.944;9.240;2023-09-19T00:11:36;17.60;99.90
6518;DHT22;3292;48.944;9.240;2023-09-19T00:14:03;17.50;99.90
6518;DHT22;3292;48.944;9.240;2023-09-19T00:16:30;17.50;99.90
6518;DHT22;3292;48.944;9.240;2023-09-19T00:18:58;17.50;99.90
6518;DHT22;3292;48.944;9.240;2023-09-19T00:21:31;17.50;99.90
6518;DHT22;3292;48.944;9.240;2023-09-19T00:23:58;17.40;99.90
6518;DHT22;3292;48.944;9.240;2023-09-19T00:26:25;17.50;99.90
6518;DHT22;3292;48.944;9.240;2023-09-19T00:28:52;17.40;99.90
6518;DHT22;3292;48.944;9.240;2023-09-19T00:31:19;17.40;99.90
6518;DHT22;3292;48.944;9.240;2023-09-19T00:33:50;17.40;99.90
6518;DHT22;3292;48.944;9.240;2023-09-19T00:36:18;17.40;99.90
6518;DHT22;3292;48.944;9.240;2023-09-19T00:38:46;17.40;99.90
6518;DHT22;3292;48.944;9.240;2023-09-19T00:41:13;17.40;99.90
6518;DHT22;3292;48.944;9.240;2023-09-19T00:43:40;17.40;99.90
6518;DHT22;3292;48.944;9.240;2023-09-19T00:46:07;17.30;99.90
6518;DHT22;3292;48.944;9.240;2023-09-19T00:48:40;17.30;99.90
6518;DHT22;3292;48.944;9.240;2023-09-19T00:51:09;17.40;99.90
6518;DHT22;3292;48.944;9.240;2023-09-19T00:53:37;17.30;99.90
6518;DHT22;3292;48.944;9.240;2023-09-19T00:56:06;17.30;99.90
6518;DHT22;3292;48.944;9.240;2023-09-19T00:58:33;17.40;99.90
6518;DHT22;3292;48.944;9.240;2023-09-19T01:01:01;17.40;99.90
6518;DHT22;3292;48.944;9.240;2023-09-19T01:03:28;17.40;99.90
6518;DHT22;3292;48.944;9.240;2023-09-19T01:05:55;17.40;99.90
6518;DHT22;3292;48.944;9.240;2023-09-19T01:08:22;17.30;99.90
6518;DHT22;3292;48.944;9.240;2023-09-19T01:10:53;17.40;99.90
6518;DHT22;3292;48.944;9.240;2023-09-19T01:13:28;17.40;99.90
6518;DHT22;3292;48.944;9.240;2023-09-19T01:16:03;17.40;99.90
6518;DHT22;3292;48.944;9.240;2023-09-19T01:18:40;17.40;99.90
6518;DHT22;3292;48.944;9.240;2023-09-19T01:21:15;17.40;99.90
6518;DHT22;3292;48.944;9.240;2023-09-19T01:24:09;17.40;99.90
6518;DHT22;3292;48.944;9.240;2023-09-19T01:26:53;17.40;99.90
6518;DHT22;3292;48.944;9.240;2023-09-19T01:29:33;17.30;99.90
6518;DHT22;3292;48.944;9.240;2023-09-19T01:32:06;17.40;99.90
6518;DHT22;3292;48.944;9.240;2023-09-19T01:34:45;17.40;99.90
6518;DHT22;3292;48.944;9.240;2023-09-19T01:37:14;17.40;99.90
6518;DHT22;3292;48.944;9.240;2023-09-19T01:39:46;17.40;99.90
6518;DHT22;3292;48.944;9.240;2023-09-19T01:42:22;17.40;99.90
6518;DHT22;3292;48.944;9.240;2023-09-19T01:44:54;17.40;99.90
6518;DHT22;3292;48.944;9.240;2023-09-19T01:47:31;17.50;99.90
6518;DHT22;3292;48.944;9.240;2023-09-19T01:50:05;17.50;99.90
6518;DHT22;3292;48.944;9.240;2023-09-19T01:52:38;17.40;99.90
6518;DHT22;3292;48.944;9.240;2023-09-19T01:55:09;17.50;99.90
6518;DHT22;3292;48.944;9.240;2023-09-19T01:57:42;17.50;99.90
6518;DHT22;3292;48.944;9.240;2023-09-19T02:00:13;17.50;99.90
6518;DHT22;3292;48.944;9.240;2023-09-19T02:02:45;17.50;99.90
6518;DHT22;3292;48.944;9.240;2023-09-19T02:05:13;17.50;99.90
6518;DHT22;3292;48.944;9.240;2023-09-19T02:07:40;17.40;99.90
6518;DHT22;3292;48.944;9.240;2023-09-19T02:10:07;17.40;99.90
6518;DHT22;3292;48.944;9.240;2023-09-19T02:12:35;17.30;99.90
6518;DHT22;3292;48.944;9.240;2023-09-19T02:15:02;17.30;99.90
6518;DHT22;3292;48.944;9.240;2023-09-19T02:17:32;17.30;99.90
6518;DHT22;3292;48.944;9.240;2023-09-19T02:20:00;17.30;99.90
6518;DHT22;3292;48.944;9.240;2023-09-19T02:22:29;17.30;99.90
6518;DHT22;3292;48.944;9.240;2023-09-19T02:24:56;17.30;99.90
6518;DHT22;3292;48.944;9.240;2023-09-19T02:27:26;17.30;99.90
6518;DHT22;3292;48.944;9.240;2023-09-19T02:29:52;17.30;99.90
6518;DHT22;3292;48.944;9.240;2023-09-19T02:32:19;17.20;99.90
6518;DHT22;3292;48.944;9.240;2023-09-19T02:34:46;17.20;99.90
6518;DHT22;3292;48.944;9.240;2023-09-19T02:37:15;17.10;99.90
6518;DHT22;3292;48.944;9.240;2023-09-19T02:39:44;17.10;99.90
6518;DHT22;3292;48.944;9.240;2023-09-19T02:42:11;17.00;99.90
6518;DHT22;3292;48.944;9.240;2023-09-19T02:44:38;16.90;99.90
6518;DHT22;3292;48.944;9.240;2023-09-19T02:47:05;16.90;99.90
6518;DHT22;3292;48.944;9.240;2023-09-19T02:49:32;16.90;99.90
6518;DHT22;3292;48.944;9.240;2023-09-19T02:52:00;16.80;99.90
6518;DHT22;3292;48.944;9.240;2023-09-19T02:54:30;16.80;99.90
6518;DHT22;3292;48.944;9.240;2023-09-19T02:56:57;16.80;99.90
6518;DHT22;3292;48.944;9.240;2023-09-19T02:59:24;16.80;99.90
6518;DHT22;3292;48.944;9.240;2023-09-19T03:01:51;16.70;99.90
6518;DHT22;3292;48.944;9.240;2023-09-19T03:04:19;16.80;99.90
6518;DHT22;3292;48.944;9.240;2023-09-19T03:06:47;16.80;99.90
6518;DHT22;3292;48.944;9.240;2023-09-19T03:09:16;16.80;99.90
6518;DHT22;3292;48.944;9.240;2023-09-19T03:11:46;16.80;99.90
6518;DHT22;3292;48.944;9.240;2023-09-19T03:14:13;16.80;99.90
6518;DHT22;3292;48.944;9.240;2023-09-19T03:16:41;16.90;99.90
6518;DHT22;3292;48.944;9.240;2023-09-19T03:19:09;16.90;99.90
6518;DHT22;3292;48.944;9.240;2023-09-19T03:21:36;16.90;99.90
6518;DHT22;3292;48.944;9.240;2023-09-19T03:24:05;16.90;99.90
6518;DHT22;3292;48.944;9.240;2023-09-19T03:26:32;16.90;99.90
6518;DHT22;3292;48.944;9.240;2023-09-19T03:29:03;16.90;99.90
6518;DHT22;3292;48.944;9.240;2023-09-19T03:31:33;16.90;99.90
6518;DHT22;3292;48.944;9.240;2023-09-19T03:34:02;16.90;99.90
6518;DHT22;3292;48.944;9.240;2023-09-19T03:36:29;17.00;99.90
6518;DHT22;3292;48.944;9.240;2023-09-19T03:38:56;16.90;99.90
6518;DHT22;3292;48.944;9.240;2023-09-19T03:41:23;16.90;99.90
6518;DHT22;3292;48.944;9.240;2023-09-19T03:43:50;17.00;99.90
6518;DHT22;3292;48.944;9.240;2023-09-19T03:46:18;17.00;99.90
6518;DHT22;3292;48.944;9.240;2023-09-19T03:48:45;17.00;99.90
6518;DHT22;3292;48.944;9.240;2023-09-19T03:51:12;17.00;99.90
6518;DHT22;3292;48.944;9.240;2023-09-19T03:53:39;17.00;99.90
6518;DHT22;3292;48.944;9.240;2023-09-19T03:56:04;17.00;99.90
6518;DHT22;3292;48.944;9.240;2023-09-19T03:58:31;17.00;99.90
6518;DHT22;3292;48.944;9.240;2023-09-19T04:01:00;17.00;99.90
6518;DHT22;3292;48.944;9.240;2023-09-19T04:03:28;17.00;99.90
6518;DHT22;3292;48.944;9.240;2023-09-19T04:06:00;17.00;99.90
6518;DHT22;3292;48.944;9.240;2023-09-19T04:08:28;17.00;99.90
6518;DHT22;3292;48.944;9.240;2023-09-19T04:10:55;17.00;99.90
6518;DHT22;3292;48.944;9.240;2023-09-19T04:13:22;17.00;99.90
6518;DHT22;3292;48.944;9.240;2023-09-19T04:15:49;17.00;99.90
6518;DHT22;3292;48.944;9.240;2023-09-19T04:18:15;16.90;99.90
6518;DHT22;3292;48.944;9.240;2023-09-19T04:20:48;16.90;99.90
6518;DHT22;3292;48.944;9.240;2023-09-19T04:23:15;16.80;99.90
6518;DHT22;3292;48.944;9.240;2023-09-19T04:25:42;16.70;99.90
6518;DHT22;3292;48.944;9.240;2023-09-19T04:28:09;16.60;99.90
6518;DHT22;3292;48.944;9.240;2023-09-19T04:30:36;16.40;99.90
6518;DHT22;3292;48.944;9.240;2023-09-19T04:33:06;16.40;99.90
6518;DHT22;3292;48.944;9.240;2023-09-19T04:35:33;16.30;99.90
6518;DHT22;3292;48.944;9.240;2023-09-19T04:38:02;16.30;99.90
6518;DHT22;3292;48.944;9.240;2023-09-19T04:40:31;16.20;99.90
6518;DHT22;3292;48.944;9.240;2023-09-19T04:42:59;16.10;99.90
6518;DHT22;3292;48.944;9.240;2023-09-19T04:45:26;16.10;99.90
6518;DHT22;3292;48.944;9.240;2023-09-19T04:47:54;16.10;99.90
6518;DHT22;3292;48.944;9.240;2023-09-19T04:50:22;16.10;99.90
6518;DHT22;3292;48.944;9.240;2023-09-19T04:52:50;16.10;99.90
6518;DHT22;3292;48.944;9.240;2023-09-19T04:55:19;16.10;99.90
6518;DHT22;3292;48.944;9.240;2023-09-19T04:57:46;16.10;99.90
6518;DHT22;3292;48.944;9.240;2023-09-19T05:00:15;16.10;99.90
6518;DHT22;3292;48.944;9.240;2023-09-19T05:02:42;16.10;99.90
6518;DHT22;3292;48.944;9.240;2023-09-19T05:05:10;16.10;99.90
6518;DHT22;3292;48.944;9.240;2023-09-19T05:07:37;16.10;99.90
6518;DHT22;3292;48.944;9.240;2023-09-19T05:10:06;16.10;99.90
6518;DHT22;3292;48.944;9.240;2023-09-19T05:12:35;16.20;99.90
6518;DHT22;3292;48.944;9.240;2023-09-19T05:15:02;16.10;99.90
6518;DHT22;3292;48.944;9.240;2023-09-19T05:17:29;16.10;99.90
6518;DHT22;3292;48.944;9.240;2023-09-19T05:19:56;16.10;99.90
6518;DHT22;3292;48.944;9.240;2023-09-19T05:22:27;16.10;99.90
6518;DHT22;3292;48.944;9.240;2023-09-19T05:24:53;16.10;99.90
6518;DHT22;3292;48.944;9.240;2023-09-19T05:27:20;16.10;99.90
6518;DHT22;3292;48.944;9.240;2023-09-19T05:29:48;16.10;99.90
6518;DHT22;3292;48.944;9.240;2023-09-19T05:32:16;16.10;99.90
6518;DHT22;3292;48.944;9.240;2023-09-19T05:34:43;16.10;99.90
6518;DHT22;3292;48.944;9.240;2023-09-19T05:37:10;16.10;99.90
6518;DHT22;3292;48.944;9.240;2023-09-19T05:39:37;16.00;99.90
6518;DHT22;3292;48.944;9.240;2023-09-19T05:42:04;16.00;99.90
6518;DHT22;3292;48.944;9.240;2023-09-19T05:44:31;15.90;99.90
6518;DHT22;3292;48.944;9.240;2023-09-19T05:47:00;15.90;99.90
6518;DHT22;3292;48.944;9.240;2023-09-19T05:49:26;15.90;99.90
6518;DHT22;3292;48.944;9.240;2023-09-19T05:51:53;15.90;99.90
6518;DHT22;3292;48.944;9.240;2023-09-19T05:54:22;15.90;99.90
6518;DHT22;3292;48.944;9.240;2023-09-19T05:56:49;15.90;99.90
6518;DHT22;3292;48.944;9.240;2023-09-19T05:59:18;15.90;99.90
6518;DHT22;3292;48.944;9.240;2023-09-19T06:01:45;15.90;99.90
6518;DHT22;3292;48.944;9.240;2023-09-19T06:04:14;15.90;99.90
6518;DHT22;3292;48.944;9.240;2023-09-19T06:06:40;15.90;99.90
6518;DHT22;3292;48.944;9.240;2023-09-19T06:09:08;15.90;99.90
6518;DHT22;3292;48.944;9.240;2023-09-19T06:11:35;15.90;99.90
6518;DHT22;3292;48.944;9.240;2023-09-19T06:14:01;16.00;99.90
6518;DHT22;3292;48.944;9.240;2023-09-19T06:16:28;16.10;99.90
6518;DHT22;3292;48.944;9.240;2023-09-19T06:18:55;16.10;99.90
6518;DHT22;3292;48.944;9.240;2023-09-19T06:21:24;16.10;99.90
6518;DHT22;3292;48.944;9.240;2023-09-19T06:23:52;16.10;99.90
6518;DHT22;3292;48.944;9.240;2023-09-19T06:26:19;16.10;99.90
6518;DHT22;3292;48.944;9.240;2023-09-19T06:28:46;16.10;99.90
6518;DHT22;3292;48.944;9.240;2023-09-19T06:31:13;16.20;99.90
6518;DHT22;3292;48.944;9.240;2023-09-19T06:33:40;16.20;99.90
6518;DHT22;3292;48.944;9.240;2023-09-19T06:36:07;16.20;99.90
6518;DHT22;3292;48.944;9.240;2023-09-19T06:38:35;16.20;99.90
6518;DHT22;3292;48.944;9.240;2023-09-19T06:41:02;16.30;99.90
6518;DHT22;3292;48.944;9.240;2023-09-19T06:43:30;16.30;99.90
6518;DHT22;3292;48.944;9.240;2023-09-19T06:45:58;16.30;99.90
6518;DHT22;3292;48.944;9.240;2023-09-19T06:48:25;16.30;99.90
6518;DHT22;3292;48.944;9.240;2023-09-19T06:50:53;16.30;99.90
6518;DHT22;3292;48.944;9.240;2023-09-19T06:53:20;16.40;99.90
6518;DHT22;3292;48.944;9.240;2023-09-19T06:55:49;16.40;99.90
6518;DHT22;3292;48.944;9.240;2023-09-19T06:58:16;16.50;99.90
6518;DHT22;3292;48.944;9.240;2023-09-19T07:00:43;16.60;99.90
6518;DHT22;3292;48.944;9.240;2023-09-19T07:03:10;16.70;99.90
6518;DHT22;3292;48.944;9.240;2023-09-19T07:05:41;16.80;99.90
6518;DHT22;3292;48.944;9.240;2023-09-19T07:08:09;17.00;99.90
6518;DHT22;3292;48.944;9.240;2023-09-19T07:10:38;17.10;99.90
6518;DHT22;3292;48.944;9.240;2023-09-19T07:13:08;17.20;99.90
6518;DHT22;3292;48.944;9.240;2023-09-19T07:15:37;17.20;99.90
6518;DHT22;3292;48.944;9.240;2023-09-19T07:18:06;17.30;99.90
6518;DHT22;3292;48.944;9.240;2023-09-19T07:20:36;17.30;99.90
6518;DHT22;3292;48.944;9.240;2023-09-19T07:23:04;17.20;99.90
6518;DHT22;3292;48.944;9.240;2023-09-19T07:25:31;17.10;99.90
6518;DHT22;3292;48.944;9.240;2023-09-19T07:27:58;17.00;99.90
6518;DHT22;3292;48.944;9.240;2023-09-19T07:30:27;17.00;99.90
6518;DHT22;3292;48.944;9.240;2023-09-19T07:32:54;17.10;99.90
6518;DHT22;3292;48.944;9.240;2023-09-19T07:35:21;17.10;99.90
6518;DHT22;3292;48.944;9.240;2023-09-19T07:37:48;17.10;99.90
6518;DHT22;3292;48.944;9.240;2023-09-19T07:40:17;17.10;99.90
6518;DHT22;3292;48.944;9.240;2023-09-19T07:42:44;17.20;99.90
6518;DHT22;3292;48.944;9.240;2023-09-19T07:45:12;17.30;99.90
6518;DHT22;3292;48.944;9.240;2023-09-19T07:47:44;17.50;99.90
6518;DHT22;3292;48.944;9.240;2023-09-19T07:50:10;17.70;99.90
6518;DHT22;3292;48.944;9.240;2023-09-19T07:52:37;17.70;99.90
6518;DHT22;3292;48.944;9.240;2023-09-19T07:55:05;17.70;99.90
6518;DHT22;3292;48.944;9.240;2023-09-19T07:57:34;17.60;99.90
6518;DHT22;3292;48.944;9.240;2023-09-19T08:00:02;17.70;99.90
6518;DHT22;3292;48.944;9.240;2023-09-19T08:02:31;17.80;99.90
6518;DHT22;3292;48.944;9.240;2023-09-19T08:05:01;18.00;99.90
6518;DHT22;3292;48.944;9.240;2023-09-19T08:07:31;17.90;99.90
6518;DHT22;3292;48.944;9.240;2023-09-19T08:09:58;18.00;99.90
6518;DHT22;3292;48.944;9.240;2023-09-19T08:12:25;18.10;99.90
6518;DHT22;3292;48.944;9.240;2023-09-19T08:14:52;18.40;99.90
6518;DHT22;3292;48.944;9.240;2023-09-19T08:17:20;18.50;99.90
6518;DHT22;3292;48.944;9.240;2023-09-19T08:19:48;18.60;99.90
6518;DHT22;3292;48.944;9.240;2023-09-19T08:22:19;18.90;99.90
6518;DHT22;3292;48.944;9.240;2023-09-19T08:24:47;19.10;99.90
6518;DHT22;3292;48.944;9.240;2023-09-19T08:27:14;19.30;99.90
6518;DHT22;3292;48.944;9.240;2023-09-19T08:29:43;19.30;99.90
6518;DHT22;3292;48.944;9.240;2023-09-19T08:32:11;19.50;99.90
6518;DHT22;3292;48.944;9.240;2023-09-19T08:34:38;19.30;99.90
6518;DHT22;3292;48.944;9.240;2023-09-19T08:37:05;19.20;99.90
6518;DHT22;3292;48.944;9.240;2023-09-19T08:39:34;19.20;99.90
6518;DHT22;3292;48.944;9.240;2023-09-19T08:42:02;19.10;99.90
6518;DHT22;3292;48.944;9.240;2023-09-19T08:44:30;19.10;99.90
6518;DHT22;3292;48.944;9.240;2023-09-19T08:47:09;19.10;99.90
6518;DHT22;3292;48.944;9.240;2023-09-19T08:49:41;19.10;99.90
6518;DHT22;3292;48.944;9.240;2023-09-19T08:52:19;19.20;99.90
6518;DHT22;3292;48.944;9.240;2023-09-19T08:54:49;19.20;99.90
6518;DHT22;3292;48.944;9.240;2023-09-19T08:57:18;19.20;99.90
6518;DHT22;3292;48.944;9.240;2023-09-19T08:59:48;19.10;99.90
6518;DHT22;3292;48.944;9.240;2023-09-19T09:02:15;19.20;99.90
6518;DHT22;3292;48.944;9.240;2023-09-19T09:04:45;19.50;99.90
6518;DHT22;3292;48.944;9.240;2023-09-19T09:07:13;19.50;99.90
6518;DHT22;3292;48.944;9.240;2023-09-19T09:09:41;19.40;99.90
6518;DHT22;3292;48.944;9.240;2023-09-19T09:12:12;19.50;99.90
6518;DHT22;3292;48.944;9.240;2023-09-19T09:14:39;19.70;99.90
6518;DHT22;3292;48.944;9.240;2023-09-19T09:17:07;20.00;99.90
6518;DHT22;3292;48.944;9.240;2023-09-19T09:19:34;20.10;99.90
6518;DHT22;3292;48.944;9.240;2023-09-19T09:22:08;20.30;99.90
6518;DHT22;3292;48.944;9.240;2023-09-19T09:24:35;20.50;99.90
6518;DHT22;3292;48.944;9.240;2023-09-19T09:27:04;20.40;99.90
6518;DHT22;3292;48.944;9.240;2023-09-19T09:29:45;20.40;99.90
6518;DHT22;3292;48.944;9.240;2023-09-19T09:32:22;20.40;99.90
6518;DHT22;3292;48.944;9.240;2023-09-19T09:34:51;20.40;99.90
6518;DHT22;3292;48.944;9.240;2023-09-19T09:37:19;20.50;99.90
6518;DHT22;3292;48.944;9.240;2023-09-19T09:39:50;20.50;99.90
6518;DHT22;3292;48.944;9.240;2023-09-19T09:42:30;20.60;99.90
6518;DHT22;3292;48.944;9.240;2023-09-19T09:45:23;20.70;99.90
6518;DHT22;3292;48.944;9.240;2023-09-19T09:48:03;21.00;99.90
6518;DHT22;3292;48.944;9.240;2023-09-19T09:50:30;21.10;99.90
6518;DHT22;3292;48.944;9.240;2023-09-19T09:53:23;21.00;99.90
6518;DHT22;3292;48.944;9.240;2023-09-19T09:56:03;20.80;99.90
6518;DHT22;3292;48.944;9.240;2023-09-19T09:58:32;20.80;99.90
6518;DHT22;3292;48.944;9.240;2023-09-19T10:01:02;20.40;99.90
6518;DHT22;3292;48.944;9.240;2023-09-19T10:03:35;20.30;99.90
6518;DHT22;3292;48.944;9.240;2023-09-19T10:06:06;20.50;99.90
6518;DHT22;3292;48.944;9.240;2023-09-19T10:09:03;20.70;99.90
6518;DHT22;3292;48.944;9.240;2023-09-19T10:11:41;20.80;99.90
6518;DHT22;3292;48.944;9.240;2023-09-19T10:14:10;21.00;99.90
6518;DHT22;3292;48.944;9.240;2023-09-19T10:16:41;21.30;99.90
6518;DHT22;3292;48.944;9.240;2023-09-19T10:19:10;21.70;99.90
6518;DHT22;3292;48.944;9.240;2023-09-19T10:21:42;21.70;99.90
6518;DHT22;3292;48.944;9.240;2023-09-19T10:24:11;21.70;99.90
6518;DHT22;3292;48.944;9.240;2023-09-19T10:26:39;21.50;99.90
6518;DHT22;3292;48.944;9.240;2023-09-19T10:29:09;21.10;99.90
6518;DHT22;3292;48.944;9.240;2023-09-19T10:31:39;21.10;99.90
6518;DHT22;3292;48.944;9.240;2023-09-19T10:34:13;21.20;99.90
6518;DHT22;3292;48.944;9.240;2023-09-19T10:36:44;21.20;99.90
6518;DHT22;3292;48.944;9.240;2023-09-19T10:39:15;21.20;99.90
6518;DHT22;3292;48.944;9.240;2023-09-19T10:41:50;21.40;99.90
6518;DHT22;3292;48.944;9.240;2023-09-19T10:44:22;21.50;99.90
6518;DHT22;3292;48.944;9.240;2023-09-19T10:46:52;21.80;99.90
6518;DHT22;3292;48.944;9.240;2023-09-19T10:49:20;21.90;99.90
6518;DHT22;3292;48.944;9.240;2023-09-19T10:51:49;21.90;99.90
6518;DHT22;3292;48.944;9.240;2023-09-19T10:54:18;21.80;99.90
6518;DHT22;3292;48.944;9.240;2023-09-19T10:56:48;21.70;99.90
6518;DHT22;3292;48.944;9.240;2023-09-19T10:59:17;21.40;99.90
6518;DHT22;3292;48.944;9.240;2023-09-19T11:01:46;21.30;99.90
6518;DHT22;3292;48.944;9.240;2023-09-19T11:04:26;21.20;99.90
6518;DHT22;3292;48.944;9.240;2023-09-19T11:07:04;21.40;99.90
6518;DHT22;3292;48.944;9.240;2023-09-19T11:09:48;21.70;99.90
6518;DHT22;3292;48.944;9.240;2023-09-19T11:12:49;21.80;99.90
6518;DHT22;3292;48.944;9.240;2023-09-19T11:18:51;21.50;99.90
6518;DHT22;3292;48.944;9.240;2023-09-19T11:21:43;21.40;99.90
6518;DHT22;3292;48.944;9.240;2023-09-19T11:24:30;21.30;99.90
6518;DHT22;3292;48.944;9.240;2023-09-19T11:27:14;21.40;99.90
6518;DHT22;3292;48.944;9.240;2023-09-19T11:29:42;21.40;99.90
6518;DHT22;3292;48.944;9.240;2023-09-19T11:32:09;21.30;99.90
6518;DHT22;3292;48.944;9.240;2023-09-19T11:34:41;21.30;99.90
6518;DHT22;3292;48.944;9.240;2023-09-19T11:40:37;21.20;99.90
6518;DHT22;3292;48.944;9.240;2023-09-19T11:43:29;21.50;99.90
6518;DHT22;3292;48.944;9.240;2023-09-19T11:46:05;21.70;99.90
6518;DHT22;3292;48.944;9.240;2023-09-19T11:48:32;21.80;99.90
6518;DHT22;3292;48.944;9.240;2023-09-19T11:51:18;22.00;99.90
6518;DHT22;3292;48.944;9.240;2023-09-19T11:53:48;22.00;99.90
6518;DHT22;3292;48.944;9.240;2023-09-19T11:56:18;22.10;99.90
6518;DHT22;3292;48.944;9.240;2023-09-19T11:58:46;22.20;99.90
6518;DHT22;3292;48.944;9.240;2023-09-19T12:01:22;22.30;99.90
6518;DHT22;3292;48.944;9.240;2023-09-19T12:03:53;22.60;99.90
6518;DHT22;3292;48.944;9.240;2023-09-19T12:06:23;22.60;99.90
6518;DHT22;3292;48.944;9.240;2023-09-19T12:08:50;22.50;99.90
6518;DHT22;3292;48.944;9.240;2023-09-19T12:11:22;22.60;99.90
6518;DHT22;3292;48.944;9.240;2023-09-19T12:13:50;22.70;99.90
6518;DHT22;3292;48.944;9.240;2023-09-19T12:16:19;22.70;99.90
6518;DHT22;3292;48.944;9.240;2023-09-19T12:18:50;22.70;99.90
6518;DHT22;3292;48.944;9.240;2023-09-19T12:21:24;22.50;99.90
6518;DHT22;3292;48.944;9.240;2023-09-19T12:24:11;22.70;99.90
6518;DHT22;3292;48.944;9.240;2023-09-19T12:26:43;22.70;99.90
6518;DHT22;3292;48.944;9.240;2023-09-19T12:29:14;23.00;99.90
6518;DHT22;3292;48.944;9.240;2023-09-19T12:31:50;23.20;99.90
6518;DHT22;3292;48.944;9.240;2023-09-19T12:34:20;23.30;99.90
6518;DHT22;3292;48.944;9.240;2023-09-19T12:36:47;23.30;99.90
6518;DHT22;3292;48.944;9.240;2023-09-19T12:39:23;23.20;99.90
6518;DHT22;3292;48.944;9.240;2023-09-19T12:41:52;23.20;99.90
6518;DHT22;3292;48.944;9.240;2023-09-19T12:44:20;22.90;99.90
6518;DHT22;3292;48.944;9.240;2023-09-19T12:46:46;23.00;99.90
6518;DHT22;3292;48.944;9.240;2023-09-19T12:49:17;23.20;99.90
6518;DHT22;3292;48.944;9.240;2023-09-19T12:51:45;23.20;99.90
6518;DHT22;3292;48.944;9.240;2023-09-19T12:54:12;23.40;99.90
6518;DHT22;3292;48.944;9.240;2023-09-19T12:56:41;23.40;99.90
6518;DHT22;3292;48.944;9.240;2023-09-19T12:59:12;23.20;99.90
6518;DHT22;3292;48.944;9.240;2023-09-19T13:01:40;23.30;99.90
6518;DHT22;3292;48.944;9.240;2023-09-19T13:04:12;23.30;99.90
6518;DHT22;3292;48.944;9.240;2023-09-19T13:06:40;23.40;99.90
6518;DHT22;3292;48.944;9.240;2023-09-19T13:09:09;23.50;99.90
6518;DHT22;3292;48.944;9.240;2023-09-19T13:11:37;23.50;99.90
6518;DHT22;3292;48.944;9.240;2023-09-19T13:14:18;23.60;99.90
6518;DHT22;3292;48.944;9.240;2023-09-19T13:16:56;23.50;99.90
6518;DHT22;3292;48.944;9.240;2023-09-19T13:19:42;23.50;99.90
6518;DHT22;3292;48.944;9.240;2023-09-19T13:22:36;23.40;99.90
6518;DHT22;3292;48.944;9.240;2023-09-19T13:25:04;23.40;99.90
6518;DHT22;3292;48.944;9.240;2023-09-19T13:27:32;23.60;99.90
6518;DHT22;3292;48.944;9.240;2023-09-19T13:30:00;23.40;99.90
6518;DHT22;3292;48.944;9.240;2023-09-19T13:32:27;23.20;99.90
6518;DHT22;3292;48.944;9.240;2023-09-19T13:34:54;23.10;99.90
6518;DHT22;3292;48.944;9.240;2023-09-19T13:37:21;23.00;99.90
6518;DHT22;3292;48.944;9.240;2023-09-19T13:39:47;23.00;99.90
6518;DHT22;3292;48.944;9.240;2023-09-19T13:42:14;23.20;99.90
6518;DHT22;3292;48.944;9.240;2023-09-19T13:44:41;23.30;99.90
6518;DHT22;3292;48.944;9.240;2023-09-19T13:47:10;23.40;99.90
6518;DHT22;3292;48.944;9.240;2023-09-19T13:49:39;23.50;99.90
6518;DHT22;3292;48.944;9.240;2023-09-19T13:52:06;23.40;99.90
6518;DHT22;3292;48.944;9.240;2023-09-19T13:54:32;23.50;99.90
6518;DHT22;3292;48.944;9.240;2023-09-19T13:56:59;23.50;99.90
6518;DHT22;3292;48.944;9.240;2023-09-19T13:59:27;23.40;99.90
6518;DHT22;3292;48.944;9.240;2023-09-19T14:01:54;23.20;99.90
6518;DHT22;3292;48.944;9.240;2023-09-19T14:04:22;23.20;99.90
6518;DHT22;3292;48.944;9.240;2023-09-19T14:06:49;23.30;99.90
6518;DHT22;3292;48.944;9.240;2023-09-19T14:09:16;23.40;99.90
6518;DHT22;3292;48.944;9.240;2023-09-19T14:11:45;23.40;99.90
6518;DHT22;3292;48.944;9.240;2023-09-19T14:14:13;23.50;99.90
6518;DHT22;3292;48.944;9.240;2023-09-19T14:16:40;23.30;99.90
6518;DHT22;3292;48.944;9.240;2023-09-19T14:19:07;23.20;99.90
6518;DHT22;3292;48.944;9.240;2023-09-19T14:21:36;23.30;99.90
6518;DHT22;3292;48.944;9.240;2023-09-19T14:24:05;23.30;99.90
6518;DHT22;3292;48.944;9.240;2023-09-19T14:26:34;23.20;99.90
6518;DHT22;3292;48.944;9.240;2023-09-19T14:29:01;23.20;99.90
6518;DHT22;3292;48.944;9.240;2023-09-19T14:31:28;23.20;99.90
6518;DHT22;3292;48.944;9.240;2023-09-19T14:33:56;23.20;99.90
6518;DHT22;3292;48.944;9.240;2023-09-19T14:36:23;23.20;99.90
6518;DHT22;3292;48.944;9.240;2023-09-19T14:38:53;23.20;99.90
6518;DHT22;3292;48.944;9.240;2023-09-19T14:41:21;23.20;99.90
6518;DHT22;3292;48.944;9.240;2023-09-19T14:43:49;23.10;99.90
6518;DHT22;3292;48.944;9.240;2023-09-19T14:46:16;23.00;99.90
6518;DHT22;3292;48.944;9.240;2023-09-19T14:48:44;22.90;99.90
6518;DHT22;3292;48.944;9.240;2023-09-19T14:51:13;22.80;99.90
6518;DHT22;3292;48.944;9.240;2023-09-19T14:53:40;22.90;99.90
6518;DHT22;3292;48.944;9.240;2023-09-19T14:56:09;22.90;99.90
6518;DHT22;3292;48.944;9.240;2023-09-19T14:58:37;23.00;99.90
6518;DHT22;3292;48.944;9.240;2023-09-19T15:01:06;23.10;99.90
6518;DHT22;3292;48.944;9.240;2023-09-19T15:03:33;23.00;99.90
6518;DHT22;3292;48.944;9.240;2023-09-19T15:06:02;22.90;99.90
6518;DHT22;3292;48.944;9.240;2023-09-19T15:08:30;22.90;99.90
6518;DHT22;3292;48.944;9.240;2023-09-19T15:10:57;22.90;99.90
6518;DHT22;3292;48.944;9.240;2023-09-19T15:13:30;22.90;99.90
6518;DHT22;3292;48.944;9.240;2023-09-19T15:16:00;23.10;99.90
6518;DHT22;3292;48.944;9.240;2023-09-19T15:18:27;23.10;99.90
6518;DHT22;3292;48.944;9.240;2023-09-19T15:20:55;23.20;99.90
6518;DHT22;3292;48.944;9.240;2023-09-19T15:23:22;23.20;99.90
6518;DHT22;3292;48.944;9.240;2023-09-19T15:25:49;23.20;99.90
6518;DHT22;3292;48.944;9.240;2023-09-19T15:28:16;23.20;99.90
6518;DHT22;3292;48.944;9.240;2023-09-19T15:30:44;23.20;99.90
6518;DHT22;3292;48.944;9.240;2023-09-19T15:33:11;23.20;99.90
6518;DHT22;3292;48.944;9.240;2023-09-19T15:35:38;23.10;99.90
6518;DHT22;3292;48.944;9.240;2023-09-19T15:38:05;23.00;99.90
6518;DHT22;3292;48.944;9.240;2023-09-19T15:40:33;22.90;99.90
6518;DHT22;3292;48.944;9.240;2023-09-19T15:43:00;22.80;99.90
6518;DHT22;3292;48.944;9.240;2023-09-19T15:45:27;22.70;99.90
6518;DHT22;3292;48.944;9.240;2023-09-19T15:47:55;22.60;99.90
6518;DHT22;3292;48.944;9.240;2023-09-19T15:50:22;22.50;99.90
6518;DHT22;3292;48.944;9.240;2023-09-19T15:52:53;22.50;99.90
6518;DHT22;3292;48.944;9.240;2023-09-19T15:55:20;22.40;99.90
6518;DHT22;3292;48.944;9.240;2023-09-19T15:57:47;22.30;99.90
6518;DHT22;3292;48.944;9.240;2023-09-19T16:00:14;22.20;99.90
6518;DHT22;3292;48.944;9.240;2023-09-19T16:02:42;22.20;99.90
6518;DHT22;3292;48.944;9.240;2023-09-19T16:05:14;22.00;99.90
6518;DHT22;3292;48.944;9.240;2023-09-19T16:07:41;22.00;99.90
6518;DHT22;3292;48.944;9.240;2023-09-19T16:10:09;22.00;99.90
6518;DHT22;3292;48.944;9.240;2023-09-19T16:12:36;22.00;99.90
6518;DHT22;3292;48.944;9.240;2023-09-19T16:15:04;21.90;99.90
6518;DHT22;3292;48.944;9.240;2023-09-19T16:17:36;21.80;99.90
6518;DHT22;3292;48.944;9.240;2023-09-19T16:20:03;21.80;99.90
6518;DHT22;3292;48.944;9.240;2023-09-19T16:22:34;21.80;99.90
6518;DHT22;3292;48.944;9.240;2023-09-19T16:25:01;21.70;99.90